createdAt,value
2017-02-17T00:00:29.237Z,63.79
2017-02-17T00:01:38.243Z,63.57
2017-02-17T00:02:47.271Z,63.6
2017-02-17T00:03:56.290Z,63.7
2017-02-17T00:05:05.301Z,63.48
2017-02-17T00:06:14.318Z,63.57
2017-02-17T00:07:23.347Z,63.86
2017-02-17T00:08:32.376Z,64.25
2017-02-17T00:09:41.391Z,63.96
2017-02-17T00:10:50.438Z,64.15
2017-02-17T00:11:59.469Z,64.15
2017-02-17T00:13:08.503Z,64.63
2017-02-17T00:14:17.557Z,64.34
2017-02-17T00:15:26.579Z,64.53
2017-02-17T00:16:35.615Z,64.43
2017-02-17T00:17:44.623Z,64.34
2017-02-17T00:18:54.063Z,64.63
2017-02-17T00:20:03.085Z,64.63
2017-02-17T00:21:12.096Z,64.15
2017-02-17T00:22:21.146Z,64.25
2017-02-17T00:23:30.176Z,64.43
2017-02-17T00:24:39.183Z,64.72
2017-02-17T00:25:48.200Z,64.53
2017-02-17T00:26:57.226Z,65.26
2017-02-17T00:28:06.235Z,64.98
2017-02-17T00:29:16.674Z,64.89
2017-02-17T00:30:25.714Z,64.89
2017-02-17T00:31:34.764Z,64.89
2017-02-17T00:32:43.822Z,65.26
2017-02-17T00:33:52.900Z,65.36
2017-02-17T00:35:01.958Z,65.46
2017-02-17T00:36:10.995Z,65.65
2017-02-17T00:37:20.061Z,65.08
2017-02-17T00:38:29.132Z,65.26
2017-02-17T00:39:38.189Z,65.26
2017-02-17T00:40:47.245Z,65.17
2017-02-17T00:41:56.433Z,65.36
2017-02-17T00:43:05.481Z,64.79
2017-02-17T00:44:14.958Z,65.08
2017-02-17T00:45:24.003Z,65.26
2017-02-17T00:46:33.022Z,65.84
2017-02-17T00:47:42.028Z,65.84
2017-02-17T00:48:51.027Z,65.84
2017-02-17T00:50:00.035Z,65.62
2017-02-17T00:51:09.071Z,65.94
2017-02-17T00:52:18.090Z,65.46
2017-02-17T00:53:27.104Z,65.46
2017-02-17T00:54:36.123Z,65.84
2017-02-17T00:55:45.135Z,65.91
2017-02-17T00:56:54.144Z,65.94
2017-02-17T00:58:03.180Z,65.26
2017-02-17T00:59:12.212Z,65.84
2017-02-17T01:00:21.241Z,65.65
2017-02-17T01:01:30.251Z,65.81
2017-02-17T01:02:39.247Z,65.91
2017-02-17T01:03:48.276Z,65.52
2017-02-17T01:04:57.287Z,66
2017-02-17T01:06:06.318Z,66.19
2017-02-17T01:07:15.342Z,65.52
2017-02-17T01:08:24.395Z,65.62
2017-02-17T01:09:33.434Z,65.62
2017-02-17T01:10:42.433Z,65.52
2017-02-17T01:11:51.457Z,65.71
2017-02-17T01:13:00.476Z,65.71
2017-02-17T01:14:10.741Z,65.62
2017-02-17T01:15:19.777Z,65.52
2017-02-17T01:16:28.816Z,66
2017-02-17T01:17:37.816Z,66.06
2017-02-17T01:18:46.850Z,66.29
2017-02-17T01:19:55.884Z,65.81
2017-02-17T01:21:04.903Z,65.71
2017-02-17T01:22:13.912Z,65.52
2017-02-17T01:23:22.933Z,65.91
2017-02-17T01:24:31.945Z,65.91
2017-02-17T01:25:40.960Z,65.62
2017-02-17T01:26:49.986Z,65.91
2017-02-17T01:27:58.988Z,65.62
2017-02-17T01:29:08.030Z,65.52
2017-02-17T01:30:17.028Z,65.81
2017-02-17T01:31:26.031Z,66.09
2017-02-17T01:32:35.071Z,65.81
2017-02-17T01:33:44.085Z,65.81
2017-02-17T01:34:53.108Z,65.81
2017-02-17T01:36:02.154Z,66.19
2017-02-17T01:37:11.172Z,65.88
2017-02-17T01:38:20.191Z,65.68
2017-02-17T01:39:29.213Z,65.58
2017-02-17T01:40:38.255Z,65.88
2017-02-17T01:41:47.288Z,66
2017-02-17T01:42:56.293Z,65.68
2017-02-17T01:44:05.336Z,66.16
2017-02-17T01:45:14.354Z,65.91
2017-02-17T01:46:23.393Z,65.71
2017-02-17T01:47:32.432Z,65.91
2017-02-17T01:48:41.452Z,65.91
2017-02-17T01:49:50.458Z,65.88
2017-02-17T01:50:59.462Z,65.81
2017-02-17T01:52:08.471Z,65.97
2017-02-17T01:53:17.496Z,65.88
2017-02-17T01:54:26.535Z,65.68
2017-02-17T01:55:35.549Z,65.49
2017-02-17T01:56:44.563Z,66.06
2017-02-17T01:57:53.577Z,65.68
2017-02-17T01:59:02.586Z,65.58
2017-02-17T02:00:11.594Z,65.68
2017-02-17T02:01:20.632Z,65.88
2017-02-17T02:02:29.650Z,65.78
2017-02-17T02:03:38.666Z,65.88
2017-02-17T02:04:47.680Z,65.97
2017-02-17T02:05:56.685Z,66.06
2017-02-17T02:07:05.711Z,65.97
2017-02-17T02:08:14.721Z,66.25
2017-02-17T02:09:23.756Z,66.16
2017-02-17T02:10:32.782Z,66.16
2017-02-17T02:11:41.800Z,65.78
2017-02-17T02:12:51.227Z,65.97
2017-02-17T02:14:00.253Z,66.25
2017-02-17T02:15:09.268Z,66.22
2017-02-17T02:16:18.279Z,66.22
2017-02-17T02:17:27.297Z,66.06
2017-02-17T02:18:36.308Z,66.06
2017-02-17T02:19:45.327Z,65.97
2017-02-17T02:20:55.165Z,65.78
2017-02-17T02:22:04.174Z,66.16
2017-02-17T02:23:13.179Z,66.06
2017-02-17T02:24:22.185Z,66.13
2017-02-17T02:25:31.189Z,65.84
2017-02-17T02:26:40.225Z,65.58
2017-02-17T02:27:49.242Z,65.58
2017-02-17T02:28:58.244Z,65.58
2017-02-17T02:30:07.270Z,65.68
2017-02-17T02:31:16.282Z,65.78
2017-02-17T02:32:25.313Z,65.68
2017-02-17T02:33:34.334Z,65.88
2017-02-17T02:34:43.757Z,65.88
2017-02-17T02:35:52.772Z,65.49
2017-02-17T02:37:01.792Z,66.06
2017-02-17T02:38:10.788Z,65.88
2017-02-17T02:39:19.796Z,65.74
2017-02-17T02:40:28.830Z,65.68
2017-02-17T02:41:37.857Z,65.97
2017-02-17T02:42:46.872Z,66.03
2017-02-17T02:43:55.872Z,65.84
2017-02-17T02:45:05.294Z,65.74
2017-02-17T02:46:14.304Z,65.65
2017-02-17T02:47:23.323Z,65.74
2017-02-17T02:48:32.341Z,65.45
2017-02-17T02:49:41.345Z,65.65
2017-02-17T02:50:50.369Z,65.74
2017-02-17T02:51:59.393Z,65.55
2017-02-17T02:53:08.837Z,65.55
2017-02-17T02:54:17.842Z,65.84
2017-02-17T02:55:26.857Z,65.84
2017-02-17T02:56:35.877Z,65.55
2017-02-17T02:57:44.898Z,65.65
2017-02-17T02:58:53.929Z,65.55
2017-02-17T03:00:02.955Z,65.65
2017-02-17T03:01:11.973Z,65.94
2017-02-17T03:02:20.975Z,65.84
2017-02-17T03:03:29.984Z,65.65
2017-02-17T03:04:39.004Z,65.84
2017-02-17T03:05:48.031Z,65.65
2017-02-17T03:06:57.062Z,65.94
2017-02-17T03:08:06.070Z,65.55
2017-02-17T03:09:15.078Z,65.94
2017-02-17T03:10:24.110Z,66.03
2017-02-17T03:11:36.606Z,65.84
2017-02-17T03:12:45.658Z,65.65
2017-02-17T03:13:54.699Z,65.84
2017-02-17T03:15:03.767Z,65.65
2017-02-17T03:16:12.825Z,65.84
2017-02-17T03:17:21.878Z,66.41
2017-02-17T03:18:30.927Z,65.94
2017-02-17T03:19:39.958Z,65.55
2017-02-17T03:20:49.003Z,66.03
2017-02-17T03:21:58.053Z,65.45
2017-02-17T03:23:07.091Z,65.94
2017-02-17T03:24:16.151Z,65.84
2017-02-17T03:25:25.191Z,65.65
2017-02-17T03:26:34.224Z,65.65
2017-02-17T03:27:43.661Z,65.55
2017-02-17T03:28:52.670Z,65.55
2017-02-17T03:30:01.695Z,65.84
2017-02-17T03:31:11.111Z,65.74
2017-02-17T03:32:20.123Z,66.03
2017-02-17T03:33:29.133Z,65.94
2017-02-17T03:34:38.138Z,65.84
2017-02-17T03:35:47.588Z,65.74
2017-02-17T03:36:56.592Z,65.52
2017-02-17T03:38:05.607Z,65.42
2017-02-17T03:39:14.621Z,65.65
2017-02-17T03:40:24.043Z,65.71
2017-02-17T03:41:33.064Z,65.52
2017-02-17T03:42:42.068Z,65.65
2017-02-17T03:43:51.083Z,65.81
2017-02-17T03:45:00.090Z,65.84
2017-02-17T03:46:09.116Z,65.9
2017-02-17T03:47:18.548Z,65.81
2017-02-17T03:48:27.556Z,65.61
2017-02-17T03:49:36.573Z,65.61
2017-02-17T03:50:45.589Z,65.65
2017-02-17T03:51:54.635Z,65.74
2017-02-17T03:53:03.652Z,65.55
2017-02-17T03:54:12.667Z,65.61
2017-02-17T03:55:21.683Z,65.81
2017-02-17T03:56:30.706Z,66.09
2017-02-17T03:57:39.718Z,65.71
2017-02-17T03:58:48.717Z,65.9
2017-02-17T03:59:57.728Z,65.61
2017-02-17T04:01:06.745Z,65.71
2017-02-17T04:02:16.160Z,65.71
2017-02-17T04:03:25.173Z,65.9
2017-02-17T04:04:34.705Z,65.52
2017-02-17T04:05:43.884Z,65.61
2017-02-17T04:06:53.343Z,66
2017-02-17T04:08:02.363Z,65.9
2017-02-17T04:09:11.396Z,66
2017-02-17T04:10:20.417Z,66
2017-02-17T04:11:29.884Z,66.09
2017-02-17T04:12:38.936Z,66.19
2017-02-17T04:13:47.963Z,66
2017-02-17T04:14:57.378Z,66.19
2017-02-17T04:16:06.815Z,66.28
2017-02-17T04:17:15.829Z,66.09
2017-02-17T04:18:24.857Z,66
2017-02-17T04:19:34.296Z,66.19
2017-02-17T04:20:43.292Z,66.67
2017-02-17T04:21:52.280Z,66.67
2017-02-17T04:23:01.303Z,66.67
2017-02-17T04:24:10.321Z,66.76
2017-02-17T04:25:19.358Z,66.57
2017-02-17T04:26:28.375Z,66
2017-02-17T04:27:37.401Z,66.19
2017-02-17T04:28:46.414Z,66.09
2017-02-17T04:29:55.432Z,65.61
2017-02-17T04:31:04.454Z,66
2017-02-17T04:32:13.880Z,66.09
2017-02-17T04:33:22.911Z,66.09
2017-02-17T04:34:32.344Z,65.71
2017-02-17T04:35:41.371Z,65.52
2017-02-17T04:36:50.395Z,65.71
2017-02-17T04:37:59.862Z,65.61
2017-02-17T04:39:08.878Z,65.9
2017-02-17T04:40:18.303Z,65.71
2017-02-17T04:41:27.314Z,65.52
2017-02-17T04:42:36.331Z,65.61
2017-02-17T04:43:45.344Z,65.61
2017-02-17T04:44:54.365Z,65.9
2017-02-17T04:46:03.380Z,65.61
2017-02-17T04:47:12.374Z,65.9
2017-02-17T04:48:21.394Z,65.61
2017-02-17T04:49:30.421Z,65.61
2017-02-17T04:50:39.848Z,65.52
2017-02-17T04:51:48.860Z,65.61
2017-02-17T04:52:57.862Z,66
2017-02-17T04:54:06.888Z,65.42
2017-02-17T04:55:15.913Z,66
2017-02-17T04:56:24.932Z,66.09
2017-02-17T04:57:33.947Z,65.52
2017-02-17T04:58:42.957Z,65.42
2017-02-17T04:59:51.959Z,65.9
2017-02-17T05:01:00.979Z,66.09
2017-02-17T05:02:10.012Z,66.19
2017-02-17T05:03:19.038Z,66.19
2017-02-17T05:04:28.054Z,66.19
2017-02-17T05:05:37.080Z,66
2017-02-17T05:06:46.093Z,65.97
2017-02-17T05:07:55.524Z,66.19
2017-02-17T05:09:04.561Z,65.9
2017-02-17T05:10:13.568Z,66.63
2017-02-17T05:11:22.594Z,66.63
2017-02-17T05:12:31.618Z,66.35
2017-02-17T05:13:41.068Z,66.06
2017-02-17T05:14:50.487Z,66.44
2017-02-17T05:15:59.532Z,66.25
2017-02-17T05:17:08.548Z,66.44
2017-02-17T05:18:17.566Z,66.16
2017-02-17T05:19:26.583Z,66.35
2017-02-17T05:20:35.615Z,66.54
2017-02-17T05:21:45.049Z,66.63
2017-02-17T05:22:54.058Z,66.44
2017-02-17T05:24:03.090Z,66.63
2017-02-17T05:25:12.103Z,66.54
2017-02-17T05:26:21.132Z,66.54
2017-02-17T05:27:30.147Z,66.44
2017-02-17T05:28:39.161Z,66.25
2017-02-17T05:29:48.217Z,66.63
2017-02-17T05:30:57.230Z,66.35
2017-02-17T05:32:06.685Z,66.09
2017-02-17T05:33:15.959Z,66
2017-02-17T05:34:25.535Z,66.09
2017-02-17T05:35:34.549Z,66.38
2017-02-17T05:36:43.556Z,66.16
2017-02-17T05:37:52.583Z,66.19
2017-02-17T05:39:01.602Z,66.35
2017-02-17T05:40:10.633Z,66.35
2017-02-17T05:41:19.667Z,66.67
2017-02-17T05:42:28.706Z,66.76
2017-02-17T05:43:37.715Z,66.35
2017-02-17T05:44:46.736Z,66
2017-02-17T05:45:55.763Z,66.28
2017-02-17T05:47:04.790Z,66.09
2017-02-17T05:48:13.786Z,66.16
2017-02-17T05:49:22.797Z,65.87
2017-02-17T05:50:31.809Z,66.16
2017-02-17T05:51:40.838Z,66.16
2017-02-17T05:52:49.855Z,66.54
2017-02-17T05:53:58.853Z,66.44
2017-02-17T05:55:07.875Z,66.16
2017-02-17T05:56:16.885Z,66.25
2017-02-17T05:57:25.945Z,66.25
2017-02-17T05:58:34.950Z,66.44
2017-02-17T05:59:43.963Z,66.44
2017-02-17T06:00:52.972Z,66.63
2017-02-17T06:02:02.001Z,66.92
2017-02-17T06:03:11.029Z,68.29
2017-02-17T06:04:20.046Z,70.5
2017-02-17T06:05:29.069Z,71.39
2017-02-17T06:06:38.486Z,72.63
2017-02-17T06:07:47.521Z,71.62
2017-02-17T06:08:56.539Z,72.67
2017-02-17T06:10:05.541Z,71.71
2017-02-17T06:11:14.991Z,72.48
2017-02-17T06:12:24.041Z,73.05
2017-02-17T06:13:33.054Z,73.34
2017-02-17T06:14:42.087Z,74.4
2017-02-17T06:15:51.089Z,75.01
2017-02-17T06:17:00.123Z,74.52
2017-02-17T06:18:09.548Z,74.91
2017-02-17T06:19:18.569Z,74.91
2017-02-17T06:20:27.588Z,75.58
2017-02-17T06:21:36.611Z,76.44
2017-02-17T06:22:46.041Z,75.39
2017-02-17T06:23:55.069Z,75.2
2017-02-17T06:25:04.079Z,77.21
2017-02-17T06:26:13.111Z,76.82
2017-02-17T06:27:22.139Z,75.29
2017-02-17T06:28:31.156Z,74.62
2017-02-17T06:29:40.161Z,75.77
2017-02-17T06:30:49.167Z,76.35
2017-02-17T06:31:58.160Z,76.06
2017-02-17T06:33:07.173Z,76.54
2017-02-17T06:34:16.606Z,76.25
2017-02-17T06:35:25.635Z,76.54
2017-02-17T06:36:34.685Z,76.82
2017-02-17T06:37:43.713Z,77.21
2017-02-17T06:38:52.750Z,76.92
2017-02-17T06:40:01.785Z,75.96
2017-02-17T06:41:10.802Z,76.29
2017-02-17T06:42:19.820Z,76.57
2017-02-17T06:43:28.835Z,77.06
2017-02-17T06:44:37.854Z,76.25
2017-02-17T06:45:46.883Z,76.54
2017-02-17T06:46:55.916Z,76.25
2017-02-17T06:48:05.346Z,75.52
2017-02-17T06:49:14.343Z,75.62
2017-02-17T06:50:23.377Z,75.52
2017-02-17T06:51:32.812Z,75.71
2017-02-17T06:52:41.841Z,74.85
2017-02-17T06:53:51.680Z,75.33
2017-02-17T06:55:00.707Z,74.95
2017-02-17T06:56:09.719Z,75.62
2017-02-17T06:57:18.753Z,75.04
2017-02-17T06:58:27.786Z,75.14
2017-02-17T06:59:36.799Z,75.23
2017-02-17T07:00:45.812Z,75.62
2017-02-17T07:01:54.815Z,75.14
2017-02-17T07:03:03.841Z,74.76
2017-02-17T07:04:12.844Z,75.52
2017-02-17T07:05:21.851Z,75.52
2017-02-17T07:06:30.886Z,75.23
2017-02-17T07:07:39.902Z,74.76
2017-02-17T07:08:48.910Z,75.23
2017-02-17T07:09:57.942Z,74.79
2017-02-17T07:11:06.971Z,75.04
2017-02-17T07:12:15.964Z,75.37
2017-02-17T07:13:24.965Z,74.98
2017-02-17T07:14:34.413Z,74.79
2017-02-17T07:15:43.848Z,74.41
2017-02-17T07:16:52.851Z,74.47
2017-02-17T07:18:01.847Z,75.37
2017-02-17T07:19:11.284Z,74.89
2017-02-17T07:20:20.301Z,75.56
2017-02-17T07:21:29.307Z,75.27
2017-02-17T07:22:38.314Z,75.56
2017-02-17T07:23:47.351Z,75.75
2017-02-17T07:24:56.353Z,75.08
2017-02-17T07:26:05.776Z,74.79
2017-02-17T07:27:14.778Z,75.18
2017-02-17T07:28:23.784Z,74.89
2017-02-17T07:29:32.823Z,75.27
2017-02-17T07:30:41.849Z,75.46
2017-02-17T07:31:50.892Z,74.69
2017-02-17T07:32:59.917Z,75.08
2017-02-17T07:34:08.935Z,74.98
2017-02-17T07:35:17.960Z,74.89
2017-02-17T07:36:26.996Z,74.69
2017-02-17T07:37:36.099Z,74.51
2017-02-17T07:38:45.108Z,74.12
2017-02-17T07:39:54.123Z,74.6
2017-02-17T07:41:03.161Z,74.22
2017-02-17T07:42:12.230Z,74.22
2017-02-17T07:43:21.235Z,73.83
2017-02-17T07:44:30.274Z,73.83
2017-02-17T07:45:39.714Z,75.18
2017-02-17T07:46:48.718Z,74.31
2017-02-17T07:47:57.736Z,73.83
2017-02-17T07:49:06.773Z,74.22
2017-02-17T07:50:15.819Z,74.41
2017-02-17T07:51:24.825Z,74.31
2017-02-17T07:52:33.841Z,74.31
2017-02-17T07:53:43.257Z,74.79
2017-02-17T07:54:52.277Z,74.98
2017-02-17T07:56:01.302Z,74.51
2017-02-17T07:57:10.319Z,74.41
2017-02-17T07:58:19.349Z,74.51
2017-02-17T07:59:28.365Z,73.83
2017-02-17T08:00:37.391Z,74.12
2017-02-17T08:01:46.419Z,73.83
2017-02-17T08:02:55.464Z,74.12
2017-02-17T08:04:04.464Z,74.12
2017-02-17T08:05:13.544Z,74.12
2017-02-17T08:06:22.560Z,74.51
2017-02-17T08:07:31.594Z,74.41
2017-02-17T08:08:40.629Z,74.02
2017-02-17T08:09:49.654Z,74.22
2017-02-17T08:10:59.119Z,73.83
2017-02-17T08:12:08.127Z,74.51
2017-02-17T08:13:17.139Z,74.02
2017-02-17T08:14:26.155Z,73.93
2017-02-17T08:15:35.166Z,74.31
2017-02-17T08:16:44.182Z,74.31
2017-02-17T08:17:53.202Z,74.6
2017-02-17T08:19:02.247Z,73.93
2017-02-17T08:20:11.263Z,74.69
2017-02-17T08:21:20.298Z,74.51
2017-02-17T08:22:29.314Z,74.22
2017-02-17T08:23:38.751Z,74.12
2017-02-17T08:24:48.190Z,73.93
2017-02-17T08:25:57.232Z,74.12
2017-02-17T08:27:06.259Z,74.12
2017-02-17T08:28:15.264Z,74.22
2017-02-17T08:29:24.288Z,74.12
2017-02-17T08:30:33.309Z,73.93
2017-02-17T08:31:42.330Z,74.12
2017-02-17T08:32:51.352Z,73.93
2017-02-17T08:34:00.375Z,74.02
2017-02-17T08:35:09.398Z,74.6
2017-02-17T08:36:18.437Z,74.22
2017-02-17T08:37:27.871Z,73.83
2017-02-17T08:38:36.904Z,74.12
2017-02-17T08:39:45.908Z,74.31
2017-02-17T08:40:54.947Z,74.35
2017-02-17T08:42:03.957Z,74.51
2017-02-17T08:43:12.998Z,74.44
2017-02-17T08:44:22.016Z,74.35
2017-02-17T08:45:31.047Z,74.12
2017-02-17T08:46:40.059Z,74.73
2017-02-17T08:47:49.067Z,74.31
2017-02-17T08:48:58.083Z,74.98
2017-02-17T08:50:07.124Z,74.93
2017-02-17T08:51:16.126Z,74.44
2017-02-17T08:52:25.152Z,74.73
2017-02-17T08:53:34.175Z,74.26
2017-02-17T08:54:43.592Z,74.16
2017-02-17T08:55:52.627Z,74.35
2017-02-17T08:57:01.649Z,74.44
2017-02-17T08:58:10.651Z,74.64
2017-02-17T08:59:19.651Z,74.35
2017-02-17T09:00:28.694Z,74.54
2017-02-17T09:01:37.703Z,74.44
2017-02-17T09:02:46.718Z,74.54
2017-02-17T09:03:55.761Z,74.06
2017-02-17T09:05:04.789Z,74.06
2017-02-17T09:06:13.798Z,74.64
2017-02-17T09:07:22.836Z,74.64
2017-02-17T09:08:31.850Z,74.16
2017-02-17T09:09:40.871Z,74.54
2017-02-17T09:10:49.884Z,74.54
2017-02-17T09:11:58.898Z,74.16
2017-02-17T09:13:08.738Z,74.35
2017-02-17T09:14:17.790Z,74.16
2017-02-17T09:15:27.267Z,74.16
2017-02-17T09:16:36.271Z,74.06
2017-02-17T09:17:45.306Z,73.97
2017-02-17T09:18:54.329Z,74.06
2017-02-17T09:20:03.346Z,74.26
2017-02-17T09:21:12.378Z,74.54
2017-02-17T09:22:21.399Z,74.35
2017-02-17T09:23:30.830Z,74.16
2017-02-17T09:24:39.849Z,74.06
2017-02-17T09:25:48.874Z,74.06
2017-02-17T09:26:57.895Z,74.26
2017-02-17T09:28:06.899Z,73.97
2017-02-17T09:29:15.894Z,74.16
2017-02-17T09:30:24.905Z,74.35
2017-02-17T09:31:33.928Z,73.87
2017-02-17T09:32:42.953Z,73.87
2017-02-17T09:33:51.983Z,74.06
2017-02-17T09:35:01.005Z,73.87
2017-02-17T09:36:10.441Z,74.16
2017-02-17T09:37:19.442Z,73.87
2017-02-17T09:38:28.460Z,74.06
2017-02-17T09:39:37.889Z,74.26
2017-02-17T09:40:46.906Z,73.77
2017-02-17T09:41:55.925Z,74.26
2017-02-17T09:43:04.956Z,73.97
2017-02-17T09:44:13.984Z,74.06
2017-02-17T09:45:23.034Z,74.44
2017-02-17T09:46:32.044Z,73.87
2017-02-17T09:47:41.066Z,74.06
2017-02-17T09:48:50.080Z,73.49
2017-02-17T09:49:59.094Z,73.49
2017-02-17T09:51:08.520Z,73.49
2017-02-17T09:52:17.566Z,73.49
2017-02-17T09:53:26.582Z,73.58
2017-02-17T09:54:35.591Z,73.58
2017-02-17T09:55:44.610Z,73.49
2017-02-17T09:56:53.643Z,73.77
2017-02-17T09:58:02.660Z,73.77
2017-02-17T09:59:11.677Z,73.58
2017-02-17T10:00:20.687Z,73.49
2017-02-17T10:01:29.702Z,73.58
2017-02-17T10:02:38.716Z,73.58
2017-02-17T10:03:47.739Z,73.58
2017-02-17T10:04:56.759Z,73.97
2017-02-17T10:06:05.826Z,73.58
2017-02-17T10:07:14.847Z,73.49
2017-02-17T10:08:23.865Z,72.91
2017-02-17T10:09:32.875Z,73.58
2017-02-17T10:10:41.894Z,73.97
2017-02-17T10:11:50.905Z,73.58
2017-02-17T10:12:59.929Z,73.1
2017-02-17T10:14:08.970Z,73.1
2017-02-17T10:15:18.437Z,73.1
2017-02-17T10:16:27.446Z,73.1
2017-02-17T10:17:36.461Z,73.58
2017-02-17T10:18:45.496Z,72.91
2017-02-17T10:19:54.555Z,73.1
2017-02-17T10:21:03.581Z,73.3
2017-02-17T10:22:12.585Z,73.3
2017-02-17T10:23:21.652Z,73.1
2017-02-17T10:24:30.682Z,73
2017-02-17T10:25:39.702Z,73.2
2017-02-17T10:26:48.716Z,73.1
2017-02-17T10:27:57.725Z,73.3
2017-02-17T10:29:06.760Z,73.1
2017-02-17T10:30:15.795Z,73.39
2017-02-17T10:31:24.822Z,73.39
2017-02-17T10:32:33.843Z,73
2017-02-17T10:33:42.858Z,73.1
2017-02-17T10:34:51.896Z,73
2017-02-17T10:36:01.315Z,73.3
2017-02-17T10:37:10.784Z,73.3
2017-02-17T10:38:19.814Z,73.2
2017-02-17T10:39:28.873Z,73.1
2017-02-17T10:40:37.921Z,73.2
2017-02-17T10:41:46.943Z,73.49
2017-02-17T10:42:55.969Z,72.81
2017-02-17T10:44:04.978Z,73
2017-02-17T10:45:14.019Z,73.04
2017-02-17T10:46:23.036Z,73.1
2017-02-17T10:47:32.051Z,73.1
2017-02-17T10:48:41.075Z,73.3
2017-02-17T10:49:50.118Z,72.72
2017-02-17T10:50:59.144Z,73.2
2017-02-17T10:52:08.180Z,73.3
2017-02-17T10:53:17.201Z,73.2
2017-02-17T10:54:26.215Z,73.2
2017-02-17T10:55:35.206Z,73.49
2017-02-17T10:56:44.234Z,73.1
2017-02-17T10:57:53.238Z,73
2017-02-17T10:59:02.282Z,73
2017-02-17T11:00:11.347Z,72.81
2017-02-17T11:01:20.366Z,73.3
2017-02-17T11:02:29.808Z,73.1
2017-02-17T11:03:38.824Z,73.3
2017-02-17T11:04:47.853Z,73.2
2017-02-17T11:05:56.862Z,73.1
2017-02-17T11:07:05.894Z,73.3
2017-02-17T11:08:14.905Z,73.39
2017-02-17T11:09:23.914Z,73.39
2017-02-17T11:10:32.930Z,73.39
2017-02-17T11:11:42.366Z,73.2
2017-02-17T11:12:51.383Z,73.39
2017-02-17T11:14:00.394Z,73.39
2017-02-17T11:15:09.400Z,73.49
2017-02-17T11:16:18.428Z,73.3
2017-02-17T11:17:27.443Z,73.39
2017-02-17T11:18:36.456Z,72.72
2017-02-17T11:19:45.478Z,73.39
2017-02-17T11:20:54.511Z,72.63
2017-02-17T11:22:03.537Z,73.3
2017-02-17T11:23:12.558Z,73
2017-02-17T11:24:21.616Z,73.49
2017-02-17T11:25:31.077Z,73.39
2017-02-17T11:26:40.095Z,73.39
2017-02-17T11:27:49.542Z,73.39
2017-02-17T11:28:58.572Z,72.81
2017-02-17T11:30:07.605Z,73.39
2017-02-17T11:31:16.619Z,73.39
2017-02-17T11:32:25.631Z,73.39
2017-02-17T11:33:34.633Z,73.39
2017-02-17T11:34:43.673Z,73.2
2017-02-17T11:35:52.680Z,73
2017-02-17T11:37:01.702Z,72.63
2017-02-17T11:38:10.721Z,73.39
2017-02-17T11:39:19.753Z,73.58
2017-02-17T11:40:28.768Z,73.58
2017-02-17T11:41:37.794Z,73
2017-02-17T11:42:46.819Z,73.1
2017-02-17T11:43:55.825Z,73.3
2017-02-17T11:45:04.859Z,73.3
2017-02-17T11:46:13.892Z,73.49
2017-02-17T11:47:22.910Z,73.49
2017-02-17T11:48:31.939Z,73
2017-02-17T11:49:40.945Z,73.04
2017-02-17T11:50:49.987Z,73.1
2017-02-17T11:51:59.001Z,73
2017-02-17T11:53:08.043Z,73.58
2017-02-17T11:54:17.056Z,73.14
2017-02-17T11:55:26.113Z,73.2
2017-02-17T11:56:35.560Z,73.33
2017-02-17T11:57:44.597Z,73.2
2017-02-17T11:58:53.620Z,73.1
2017-02-17T12:00:02.648Z,72.95
2017-02-17T12:01:12.081Z,73
2017-02-17T12:02:21.099Z,73.1
2017-02-17T12:03:30.305Z,73.2
2017-02-17T12:04:39.329Z,72.91
2017-02-17T12:05:48.354Z,72.91
2017-02-17T12:06:57.401Z,73
2017-02-17T12:08:06.840Z,73
2017-02-17T12:09:15.857Z,73
2017-02-17T12:10:24.875Z,73.39
2017-02-17T12:11:33.918Z,73
2017-02-17T12:12:43.754Z,73
2017-02-17T12:13:52.766Z,72.81
2017-02-17T12:15:01.856Z,72.53
2017-02-17T12:16:10.898Z,72.91
2017-02-17T12:17:19.908Z,73
2017-02-17T12:18:28.957Z,72.91
2017-02-17T12:19:37.970Z,72.91
2017-02-17T12:20:46.985Z,72.91
2017-02-17T12:21:56.004Z,72.81
2017-02-17T12:23:05.029Z,72.85
2017-02-17T12:24:14.066Z,72.66
2017-02-17T12:25:23.089Z,72.72
2017-02-17T12:26:32.110Z,72.95
2017-02-17T12:27:41.133Z,72.91
2017-02-17T12:28:50.162Z,72.56
2017-02-17T12:29:59.195Z,72.75
2017-02-17T12:31:08.191Z,72.95
2017-02-17T12:32:17.227Z,72.85
2017-02-17T12:33:26.228Z,72.75
2017-02-17T12:34:35.248Z,72.85
2017-02-17T12:35:44.273Z,72.85
2017-02-17T12:36:53.298Z,72.47
2017-02-17T12:38:02.303Z,72.66
2017-02-17T12:39:11.335Z,72.85
2017-02-17T12:40:20.349Z,72.56
2017-02-17T12:41:29.360Z,72.66
2017-02-17T12:42:38.378Z,72.56
2017-02-17T12:43:47.812Z,72.66
2017-02-17T12:44:56.856Z,72.53
2017-02-17T12:46:06.296Z,72.81
2017-02-17T12:47:15.317Z,72.91
2017-02-17T12:48:24.330Z,72.72
2017-02-17T12:49:33.373Z,72.66
2017-02-17T12:50:42.391Z,72.72
2017-02-17T12:51:51.410Z,73.1
2017-02-17T12:53:00.431Z,72.63
2017-02-17T12:54:09.451Z,72.63
2017-02-17T12:55:18.478Z,72.72
2017-02-17T12:56:27.500Z,72.53
2017-02-17T12:57:36.533Z,72.72
2017-02-17T12:58:45.543Z,72.81
2017-02-17T12:59:54.540Z,72.63
2017-02-17T13:01:03.965Z,72.66
2017-02-17T13:02:12.995Z,72.91
2017-02-17T13:03:22.833Z,73
2017-02-17T13:04:31.858Z,72.81
2017-02-17T13:05:40.882Z,72.81
2017-02-17T13:06:49.896Z,72.91
2017-02-17T13:07:58.906Z,72.53
2017-02-17T13:09:07.936Z,72.53
2017-02-17T13:10:16.974Z,72.63
2017-02-17T13:11:26.401Z,72.72
2017-02-17T13:12:35.410Z,72.63
2017-02-17T13:13:44.443Z,72.28
2017-02-17T13:14:53.453Z,72.18
2017-02-17T13:16:02.475Z,72.47
2017-02-17T13:17:11.489Z,72.37
2017-02-17T13:18:20.969Z,72.75
2017-02-17T13:19:29.989Z,72.72
2017-02-17T13:20:39.020Z,72.63
2017-02-17T13:21:48.023Z,72.95
2017-02-17T13:22:57.035Z,72.95
2017-02-17T13:24:06.057Z,72.53
2017-02-17T13:25:15.078Z,72.81
2017-02-17T13:26:24.092Z,72.53
2017-02-17T13:27:33.092Z,72.63
2017-02-17T13:28:42.112Z,72.63
2017-02-17T13:29:51.138Z,72.63
2017-02-17T13:31:00.146Z,72.91
2017-02-17T13:32:09.156Z,72.91
2017-02-17T13:33:18.173Z,72.91
2017-02-17T13:34:27.597Z,73
2017-02-17T13:35:36.652Z,72.63
2017-02-17T13:36:46.079Z,72.81
2017-02-17T13:37:55.151Z,72.81
2017-02-17T13:39:04.179Z,72.91
2017-02-17T13:40:13.211Z,72.63
2017-02-17T13:41:22.220Z,72.81
2017-02-17T13:42:31.257Z,73
2017-02-17T13:43:40.285Z,72.91
2017-02-17T13:44:49.297Z,72.91
2017-02-17T13:45:58.319Z,72.72
2017-02-17T13:47:07.761Z,72.72
2017-02-17T13:48:17.217Z,72.63
2017-02-17T13:49:26.259Z,72.53
2017-02-17T13:50:35.289Z,73
2017-02-17T13:51:44.750Z,73
2017-02-17T13:52:53.766Z,73
2017-02-17T13:54:02.783Z,72.91
2017-02-17T13:55:11.801Z,72.43
2017-02-17T13:56:20.805Z,72.63
2017-02-17T13:57:29.820Z,72.72
2017-02-17T13:58:38.828Z,73
2017-02-17T13:59:48.291Z,73.1
2017-02-17T14:00:57.306Z,73
2017-02-17T14:02:06.326Z,72.43
2017-02-17T14:03:15.338Z,72.72
2017-02-17T14:04:24.354Z,72.91
2017-02-17T14:05:33.380Z,72.91
2017-02-17T14:06:42.384Z,72.91
2017-02-17T14:07:51.418Z,73.49
2017-02-17T14:09:00.430Z,73
2017-02-17T14:10:09.471Z,73.3
2017-02-17T14:11:18.515Z,73.2
2017-02-17T14:12:27.555Z,73.3
2017-02-17T14:13:36.595Z,73.49
2017-02-17T14:14:45.611Z,73
2017-02-17T14:15:54.647Z,73.39
2017-02-17T14:17:03.644Z,73.58
2017-02-17T14:18:12.653Z,73.2
2017-02-17T14:19:21.672Z,73.3
2017-02-17T14:20:30.695Z,73.39
2017-02-17T14:21:40.157Z,73.3
2017-02-17T14:22:49.182Z,73.1
2017-02-17T14:23:58.212Z,72.81
2017-02-17T14:25:07.225Z,73
2017-02-17T14:26:16.241Z,73.39
2017-02-17T14:27:25.272Z,73
2017-02-17T14:28:34.697Z,73.2
2017-02-17T14:29:44.114Z,73.1
2017-02-17T14:30:53.143Z,73.39
2017-02-17T14:32:02.169Z,73.49
2017-02-17T14:33:11.194Z,73.2
2017-02-17T14:34:20.208Z,73.49
2017-02-17T14:35:29.226Z,73.3
2017-02-17T14:36:38.245Z,73.58
2017-02-17T14:37:47.272Z,73.58
2017-02-17T14:38:56.290Z,73.07
2017-02-17T14:40:05.322Z,73.58
2017-02-17T14:41:14.344Z,73.74
2017-02-17T14:42:23.357Z,73.68
2017-02-17T14:43:32.368Z,73.58
2017-02-17T14:44:41.802Z,73.58
2017-02-17T14:45:50.803Z,73.58
2017-02-17T14:46:59.822Z,73.3
2017-02-17T14:48:08.842Z,73.58
2017-02-17T14:49:17.850Z,73.68
2017-02-17T14:50:26.889Z,73.58
2017-02-17T14:51:35.918Z,73.2
2017-02-17T14:52:45.363Z,73
2017-02-17T14:53:54.366Z,73.1
2017-02-17T14:55:03.383Z,73.2
2017-02-17T14:56:12.416Z,73.77
2017-02-17T14:57:21.428Z,73.74